Time;durP1;ratioP1;P1;durP2;ratioP2;P2;SDS_P1;SDS_P2;PMS_P1;PMS_P2;Temp;Humidity;BMP_temperature;BMP_pressure;BME280_temperature;BME280_humidity;BME280_pressure;Samples;Min_cycle;Max_cycle;Signal;HPM_P1;HPM_P2
2023/04/25 00:01:12;;;;;;;3.05;2.08;;;;;;;15.63;100.00;99134.00;5022052;28;20327;-65
2023/04/25 00:03:38;;;;;;;3.45;2.03;;;;;;;15.44;100.00;99124.94;5020437;28;20026;-65
2023/04/25 00:06:04;;;;;;;3.47;2.20;;;;;;;15.26;100.00;99109.56;5025457;28;20044;-65
2023/04/25 00:08:30;;;;;;;2.95;2.50;;;;;;;15.17;100.00;99113.47;5022179;28;20283;-65
2023/04/25 00:10:56;;;;;;;3.67;2.30;;;;;;;14.84;100.00;99108.16;5021436;28;20092;-65
2023/04/25 00:13:22;;;;;;;2.83;2.15;;;;;;;14.72;100.00;99098.31;5022556;28;20316;-64
2023/04/25 00:15:48;;;;;;;3.53;2.20;;;;;;;14.60;100.00;99098.13;5021711;28;20327;-65
2023/04/25 00:18:14;;;;;;;3.72;2.42;;;;;;;14.52;100.00;99085.78;5021006;28;20037;-67
2023/04/25 00:20:40;;;;;;;3.58;2.50;;;;;;;14.39;100.00;99083.88;5024746;28;20069;-67
2023/04/25 00:23:05;;;;;;;2.53;2.15;;;;;;;14.26;100.00;99086.53;5020686;28;20096;-67
2023/04/25 00:25:31;;;;;;;3.00;2.10;;;;;;;14.16;100.00;99074.63;5020792;28;20041;-64
2023/04/25 00:27:56;;;;;;;2.45;1.98;;;;;;;14.16;100.00;99079.94;5021307;28;20611;-65
2023/04/25 00:30:22;;;;;;;3.50;2.38;;;;;;;14.13;100.00;99080.34;5023148;28;20380;-64
2023/04/25 00:32:48;;;;;;;2.65;2.28;;;;;;;14.06;100.00;99075.00;5023072;28;20352;-67
2023/04/25 00:35:14;;;;;;;4.18;2.60;;;;;;;14.06;100.00;99072.34;5020868;28;20240;-64
2023/04/25 00:37:39;;;;;;;5.43;2.53;;;;;;;14.15;100.00;99071.13;5019202;28;20044;-64
2023/04/25 00:40:06;;;;;;;6.43;2.97;;;;;;;14.11;100.00;99071.75;5022207;28;20606;-65
2023/04/25 00:42:32;;;;;;;3.05;2.40;;;;;;;14.15;100.00;99062.34;5023695;28;20044;-65
2023/04/25 00:44:59;;;;;;;2.95;2.65;;;;;;;14.17;100.00;99060.28;5026143;28;20231;-64
2023/04/25 00:47:25;;;;;;;3.30;1.98;;;;;;;14.16;100.00;99056.81;5019878;28;20095;-65
2023/04/25 00:49:51;;;;;;;2.90;2.60;;;;;;;14.28;100.00;99046.38;5022777;28;20061;-65
2023/04/25 00:52:16;;;;;;;2.33;1.90;;;;;;;14.33;100.00;99060.72;5023856;28;20041;-65
2023/04/25 00:54:42;;;;;;;1.98;1.77;;;;;;;14.41;100.00;99061.56;5020519;28;20037;-65
2023/04/25 00:57:08;;;;;;;2.33;1.65;;;;;;;14.54;100.00;99067.75;5019357;28;20045;-65
2023/04/25 00:59:33;;;;;;;2.17;1.98;;;;;;;14.61;100.00;99067.78;5023878;28;20041;-66
2023/04/25 01:01:59;;;;;;;3.75;2.65;;;;;;;14.77;100.00;99064.72;5022399;28;20034;-65
2023/04/25 01:04:28;;;;;;;2.85;2.10;;;;;;;14.77;100.00;99061.22;5022873;28;20025;-64
2023/04/25 01:06:54;;;;;;;3.42;2.17;;;;;;;14.70;100.00;99063.88;5020152;28;20084;-64
2023/04/25 01:09:20;;;;;;;3.60;2.22;;;;;;;14.69;100.00;99073.72;5018039;28;20029;-64
2023/04/25 01:11:45;;;;;;;3.03;2.38;;;;;;;14.76;100.00;99076.41;5024873;28;20049;-63
2023/04/25 01:14:11;;;;;;;3.30;2.38;;;;;;;14.78;100.00;99085.00;5019619;28;20030;-65
2023/04/25 01:16:36;;;;;;;3.45;2.20;;;;;;;14.82;100.00;99080.91;5021910;28;20068;-64
2023/04/25 01:19:09;;;;;;;4.03;2.28;;;;;;;14.85;100.00;99085.00;5021141;28;20037;-63
2023/04/25 01:21:34;;;;;;;3.42;2.50;;;;;;;14.92;100.00;99075.16;5021220;28;20029;-64
2023/04/25 01:24:00;;;;;;;3.47;2.47;;;;;;;15.00;100.00;99073.09;5019813;28;20283;-64
2023/04/25 01:26:26;;;;;;;3.65;2.80;;;;;;;15.00;100.00;99058.94;5021777;28;20101;-63
2023/04/25 01:28:52;;;;;;;3.38;2.83;;;;;;;14.96;100.00;99057.72;5020902;28;20034;-64
2023/04/25 01:31:19;;;;;;;3.45;2.25;;;;;;;14.97;100.00;99062.84;5023729;28;20029;-64
2023/04/25 01:33:45;;;;;;;4.18;2.80;;;;;;;14.94;100.00;99068.59;5022383;28;20052;-64
2023/04/25 01:36:11;;;;;;;3.10;2.70;;;;;;;14.83;100.00;99068.41;5022536;28;20042;-64
2023/04/25 01:38:36;;;;;;;4.35;2.60;;;;;;;14.74;100.00;99065.13;5024367;28;20040;-63
2023/04/25 01:41:02;;;;;;;3.67;2.55;;;;;;;14.75;100.00;99061.44;5027854;28;20022;-64
2023/04/25 01:43:28;;;;;;;3.47;2.97;;;;;;;14.82;100.00;99051.59;5025481;28;20107;-64
2023/04/25 01:45:54;;;;;;;4.53;2.50;;;;;;;14.91;100.00;99063.69;5025760;28;20041;-64
2023/04/25 01:48:19;;;;;;;3.47;2.65;;;;;;;14.92;100.00;99059.16;5025241;28;20096;-64
2023/04/25 01:50:46;;;;;;;4.10;2.83;;;;;;;14.84;100.00;99059.38;5023423;28;20205;-64
2023/04/25 01:53:12;;;;;;;3.40;2.75;;;;;;;14.86;100.00;99065.31;5032442;28;20042;-64
2023/04/25 01:55:38;;;;;;;5.18;3.35;;;;;;;14.79;100.00;99059.16;5027067;28;20327;-64
2023/04/25 01:58:09;;;;;;;5.22;3.42;;;;;;;14.77;100.00;99066.56;5026639;28;20050;-65
2023/04/25 02:00:34;;;;;;;4.68;3.70;;;;;;;14.76;100.00;99064.91;5023718;28;20052;-63
2023/04/25 02:03:00;;;;;;;5.03;3.17;;;;;;;14.81;100.00;99057.94;5023704;28;20335;-64
2023/04/25 02:05:26;;;;;;;4.90;3.45;;;;;;;14.83;100.00;99052.41;5026306;28;20033;-63
2023/04/25 02:07:51;;;;;;;4.32;3.22;;;;;;;14.92;100.00;99053.84;5027224;28;20107;-64
2023/04/25 02:10:16;;;;;;;4.03;3.05;;;;;;;14.99;100.00;99054.66;5025400;28;20032;-65
2023/04/25 02:12:42;;;;;;;5.68;3.80;;;;;;;15.02;100.00;99060.38;5024310;28;20040;-64
2023/04/25 02:15:08;;;;;;;5.80;3.42;;;;;;;15.01;100.00;99050.75;5025045;28;20034;-64
2023/04/25 02:17:33;;;;;;;4.22;3.22;;;;;;;15.05;100.00;99055.66;5024350;28;20350;-64
2023/04/25 02:19:59;;;;;;;6.15;3.20;;;;;;;15.11;100.00;99044.16;5022678;28;20087;-64
2023/04/25 02:22:24;;;;;;;4.75;3.45;;;;;;;15.11;100.00;99039.66;5027369;28;20033;-64
2023/04/25 02:24:50;;;;;;;5.65;3.65;;;;;;;15.14;100.00;99047.22;5027553;28;20041;-63
2023/04/25 02:27:15;;;;;;;5.57;4.57;;;;;;;15.14;100.00;99044.56;5024264;28;20038;-64
2023/04/25 02:29:40;;;;;;;6.38;3.90;;;;;;;15.11;100.00;99041.50;5021774;28;20037;-64
2023/04/25 02:32:06;;;;;;;4.82;4.00;;;;;;;15.12;100.00;99037.81;5025277;28;20325;-65
2023/04/25 02:34:32;;;;;;;4.72;4.05;;;;;;;15.17;100.00;99044.16;5024396;28;20104;-64
2023/04/25 02:36:57;;;;;;;6.00;4.22;;;;;;;15.17;100.00;99046.81;5023459;28;20038;-64
2023/04/25 02:39:24;;;;;;;6.10;3.97;;;;;;;15.22;100.00;99047.00;5022602;28;20033;-63
2023/04/25 02:41:50;;;;;;;4.63;3.90;;;;;;;15.29;100.00;99044.31;5025516;28;20056;-64
2023/04/25 02:44:15;;;;;;;8.23;4.15;;;;;;;15.31;100.00;99039.59;5022014;28;20373;-64
2023/04/25 02:46:41;;;;;;;5.72;4.38;;;;;;;15.33;100.00;99042.88;5021062;28;20042;-64
2023/04/25 02:49:06;;;;;;;5.32;3.83;;;;;;;15.30;100.00;99044.13;5026165;28;20041;-64
2023/04/25 02:51:32;;;;;;;4.85;3.55;;;;;;;15.29;100.00;99045.16;5024098;28;20464;-66
2023/04/25 02:53:58;;;;;;;5.97;4.25;;;;;;;15.28;100.00;99042.69;5024218;28;20025;-65
2023/04/25 02:56:25;;;;;;;4.53;3.53;;;;;;;15.30;100.00;99036.13;5023045;28;20076;-66
2023/04/25 02:58:51;;;;;;;4.68;3.78;;;;;;;15.32;100.00;99038.56;5020927;28;20037;-66
2023/04/25 03:01:16;;;;;;;6.90;4.30;;;;;;;15.15;100.00;99046.22;5023503;28;20044;-63
2023/04/25 03:03:42;;;;;;;7.10;4.43;;;;;;;14.91;100.00;99057.53;5021069;28;20038;-66
2023/04/25 03:06:07;;;;;;;4.88;4.22;;;;;;;14.93;100.00;99050.97;5023827;28;20049;-63
2023/04/25 03:08:34;;;;;;;5.50;3.75;;;;;;;14.53;100.00;99030.66;5023497;28;20219;-66
2023/04/25 03:10:59;;;;;;;5.28;3.95;;;;;;;14.75;100.00;99055.28;5021167;28;20038;-63
2023/04/25 03:13:25;;;;;;;5.72;3.63;;;;;;;14.66;100.00;99060.81;5020703;28;20366;-64
2023/04/25 03:15:51;;;;;;;5.35;3.45;;;;;;;14.66;100.00;99055.50;5024166;28;20034;-66
2023/04/25 03:18:16;;;;;;;6.32;4.10;;;;;;;14.63;100.00;99055.06;5021962;28;20052;-63
2023/04/25 03:20:42;;;;;;;6.28;4.35;;;;;;;14.58;100.00;99058.34;5021548;28;20046;-66
2023/04/25 03:23:08;;;;;;;6.63;4.35;;;;;;;14.64;100.00;99056.72;5026146;28;20351;-64
2023/04/25 03:25:33;;;;;;;6.65;4.38;;;;;;;14.63;100.00;99063.06;5023455;28;20095;-64
2023/04/25 03:27:58;;;;;;;7.43;4.78;;;;;;;14.65;100.00;99056.50;5024504;28;20048;-64
2023/04/25 03:30:24;;;;;;;7.60;5.18;;;;;;;14.63;100.00;99055.06;5023765;28;20205;-65
2023/04/25 03:32:49;;;;;;;7.10;5.20;;;;;;;14.60;100.00;99044.81;5021972;28;20435;-66
2023/04/25 03:35:15;;;;;;;11.35;5.25;;;;;;;14.58;100.00;99042.38;5023465;28;20074;-66
2023/04/25 03:37:40;;;;;;;8.95;5.47;;;;;;;14.58;100.00;99052.22;5024977;28;20071;-66
2023/04/25 03:40:06;;;;;;;9.27;6.22;;;;;;;14.57;100.00;99051.38;5025098;28;20037;-66
2023/04/25 03:42:32;;;;;;;10.57;6.13;;;;;;;14.61;100.00;99044.63;5023598;28;20201;-66
2023/04/25 03:44:57;;;;;;;9.27;6.90;;;;;;;14.63;100.00;99047.09;5020224;28;20583;-66
2023/04/25 03:47:23;;;;;;;11.13;6.30;;;;;;;14.63;100.00;99039.09;5022011;28;20072;-66
2023/04/25 03:49:49;;;;;;;9.98;6.53;;;;;;;14.69;100.00;99040.94;5025120;28;20041;-66
2023/04/25 03:52:14;;;;;;;10.25;6.45;;;;;;;14.73;100.00;99033.34;5020787;28;20037;-66
2023/04/25 03:54:40;;;;;;;9.25;6.35;;;;;;;14.78;100.00;99033.53;5023283;28;20091;-66
2023/04/25 03:57:05;;;;;;;9.95;6.93;;;;;;;14.79;100.00;99027.19;5022620;28;20107;-66
2023/04/25 03:59:31;;;;;;;8.43;6.15;;;;;;;14.78;100.00;99025.56;5022561;28;20109;-66
2023/04/25 04:01:56;;;;;;;9.07;6.82;;;;;;;14.74;100.00;99035.00;5025115;28;20320;-66
2023/04/25 04:04:22;;;;;;;11.55;6.97;;;;;;;14.85;100.00;99034.38;5023855;28;20355;-68
2023/04/25 04:06:47;;;;;;;12.75;7.60;;;;;;;14.89;100.00;99038.25;5021319;28;20049;-68
2023/04/25 04:09:13;;;;;;;7.88;5.93;;;;;;;14.89;100.00;99028.41;5020130;28;20462;-68
2023/04/25 04:11:39;;;;;;;8.95;6.40;;;;;;;14.90;100.00;99026.56;5023216;28;20156;-68
2023/04/25 04:14:06;;;;;;;8.82;5.78;;;;;;;14.98;100.00;99029.84;5022233;28;20363;-68
2023/04/25 04:16:32;;;;;;;12.05;6.82;;;;;;;14.81;100.00;99035.81;5023176;28;20053;-68
2023/04/25 04:18:57;;;;;;;10.25;7.03;;;;;;;14.88;100.00;99029.44;5024504;28;20308;-68
2023/04/25 04:21:22;;;;;;;16.85;11.38;;;;;;;14.98;100.00;99029.00;5020985;28;20319;-68
2023/04/25 04:23:48;;;;;;;20.17;13.57;;;;;;;14.92;100.00;99030.66;5021525;28;20034;-68
2023/04/25 04:26:16;;;;;;;16.75;11.02;;;;;;;14.97;100.00;99025.53;5023500;28;20037;-68
2023/04/25 04:28:42;;;;;;;16.88;9.52;;;;;;;15.11;100.00;99023.66;5021400;28;20057;-68
2023/04/25 04:31:09;;;;;;;15.00;9.98;;;;;;;15.21;100.00;99029.38;5020873;28;20083;-68
2023/04/25 04:33:35;;;;;;;11.98;8.07;;;;;;;15.19;100.00;99034.09;5024617;28;20393;-68
2023/04/25 04:36:00;;;;;;;12.10;8.00;;;;;;;15.20;100.00;99042.91;5022960;28;20076;-68
2023/04/25 04:38:26;;;;;;;11.32;6.97;;;;;;;15.24;100.00;99044.13;5022467;28;20025;-67
2023/04/25 04:40:52;;;;;;;10.05;6.03;;;;;;;15.28;100.00;99045.34;5020595;28;20129;-67
2023/04/25 04:43:18;;;;;;;7.63;5.18;;;;;;;15.25;100.00;99049.25;5024063;28;20220;-67
2023/04/25 04:45:44;;;;;;;7.28;6.05;;;;;;;15.30;100.00;99052.13;5022807;28;20033;-67
2023/04/25 04:48:11;;;;;;;8.90;6.53;;;;;;;15.43;100.00;99053.13;5019958;28;20040;-67
2023/04/25 04:50:37;;;;;;;7.35;5.75;;;;;;;15.45;100.00;99043.88;5024696;28;20026;-68
2023/04/25 04:53:03;;;;;;;7.32;5.07;;;;;;;15.54;100.00;99047.13;5020987;28;20390;-67
2023/04/25 04:55:29;;;;;;;8.68;5.57;;;;;;;15.61;100.00;99045.31;5019476;28;20045;-68
2023/04/25 04:57:55;;;;;;;8.43;5.75;;;;;;;15.69;100.00;99049.59;5019384;28;20362;-68
2023/04/25 05:00:21;;;;;;;7.07;5.05;;;;;;;15.76;100.00;99042.38;5020527;28;20324;-68
2023/04/25 05:02:47;;;;;;;6.07;4.47;;;;;;;15.85;100.00;99033.09;5021806;28;20227;-69
2023/04/25 05:05:12;;;;;;;6.90;4.47;;;;;;;15.91;100.00;99037.56;5019423;28;20087;-66
2023/04/25 05:07:38;;;;;;;5.75;4.05;;;;;;;15.96;100.00;99043.09;5023996;28;20037;-66
2023/04/25 05:10:03;;;;;;;5.22;3.38;;;;;;;16.02;100.00;99039.56;5023354;28;20032;-68
2023/04/25 05:12:30;;;;;;;5.70;3.97;;;;;;;16.21;100.00;99048.50;5022135;28;20046;-68
2023/04/25 05:14:55;;;;;;;6.75;3.90;;;;;;;16.26;100.00;99048.66;5020122;28;20040;-67
2023/04/25 05:17:21;;;;;;;4.50;3.53;;;;;;;16.26;100.00;99046.00;5019654;28;20062;-68
2023/04/25 05:19:46;;;;;;;5.68;3.42;;;;;;;16.32;100.00;99042.47;5021272;28;20178;-66
2023/04/25 05:22:11;;;;;;;7.75;4.65;;;;;;;16.33;100.00;99046.75;5020900;28;20049;-68
2023/04/25 05:24:37;;;;;;;9.18;6.53;;;;;;;16.30;100.00;99052.53;5023484;28;20025;-66
2023/04/25 05:27:02;;;;;;;4.28;3.70;;;;;;;16.24;100.00;99045.38;5021820;28;20029;-66
2023/04/25 05:29:28;;;;;;;7.63;6.90;;;;;;;16.12;100.00;99047.09;5019470;28;20037;-68
2023/04/25 05:31:53;;;;;;;6.93;5.38;;;;;;;16.21;100.00;99043.97;5024105;28;20405;-68
2023/04/25 05:34:19;;;;;;;5.13;3.88;;;;;;;16.20;100.00;99037.00;5019155;28;20038;-67
2023/04/25 05:36:48;;;;;;;7.18;5.15;;;;;;;15.99;100.00;99050.69;5018691;28;20053;-68
2023/04/25 05:39:13;;;;;;;6.65;5.00;;;;;;;16.10;100.00;99046.50;5022838;28;20168;-68
2023/04/25 05:41:39;;;;;;;5.13;3.97;;;;;;;16.11;100.00;99040.13;5022404;28;20340;-69
2023/04/25 05:44:05;;;;;;;6.25;4.05;;;;;;;16.12;100.00;99049.78;5020263;28;20037;-68
2023/04/25 05:46:30;;;;;;;5.65;4.97;;;;;;;16.07;100.00;99045.09;5023861;28;20038;-68
2023/04/25 05:48:56;;;;;;;12.23;11.02;;;;;;;16.16;100.00;99037.63;5024658;28;20092;-69
2023/04/25 05:51:21;;;;;;;5.32;3.55;;;;;;;15.86;100.00;99037.41;5020454;28;20346;-69
2023/04/25 05:53:47;;;;;;;3.63;2.50;;;;;;;15.95;100.00;99038.78;5022916;28;20330;-68
2023/04/25 05:56:13;;;;;;;3.67;2.65;;;;;;;15.96;100.00;99043.09;5022053;28;20051;-69
2023/04/25 05:58:38;;;;;;;4.05;2.78;;;;;;;15.98;100.00;99045.56;5019807;28;20029;-69
2023/04/25 06:01:04;;;;;;;5.03;2.88;;;;;;;16.03;100.00;99046.53;5019977;28;20041;-68
2023/04/25 06:03:30;;;;;;;3.42;2.78;;;;;;;16.09;100.00;99044.88;5024187;28;20535;-69
2023/04/25 06:05:55;;;;;;;6.32;2.72;;;;;;;16.14;100.00;99048.53;5023165;28;20033;-69
2023/04/25 06:08:20;;;;;;;5.07;4.10;;;;;;;16.29;100.00;99041.03;5020871;28;20030;-65
2023/04/25 06:10:46;;;;;;;18.55;16.60;;;;;;;16.37;100.00;99044.47;5024585;28;20044;-69
2023/04/25 06:13:11;;;;;;;5.35;4.05;;;;;;;16.31;100.00;99034.66;5019915;28;20036;-67
2023/04/25 06:15:37;;;;;;;4.03;2.78;;;;;;;16.38;100.00;99036.25;5019448;28;20044;-66
2023/04/25 06:18:02;;;;;;;6.40;3.55;;;;;;;16.49;100.00;99032.06;5023412;28;20290;-68
2023/04/25 06:20:28;;;;;;;3.65;2.47;;;;;;;16.69;100.00;99023.94;5031909;28;20067;-67
2023/04/25 06:22:54;;;;;;;2.60;2.10;;;;;;;16.92;98.25;99037.50;5034571;28;20033;-69
2023/04/25 06:25:20;;;;;;;2.80;2.10;;;;;;;17.02;98.75;99037.00;5033303;28;20052;-69
2023/04/25 06:27:45;;;;;;;3.15;2.42;;;;;;;17.15;98.28;99028.84;5031772;28;20249;-66
2023/04/25 06:30:12;;;;;;;5.00;2.25;;;;;;;17.24;96.83;99032.88;5034980;28;20305;-66
2023/04/25 06:32:38;;;;;;;2.88;2.40;;;;;;;17.20;96.47;99037.03;5033548;28;20100;-66
2023/04/25 06:35:03;;;;;;;3.83;2.50;;;;;;;17.24;97.21;99035.53;5034229;28;20091;-68
2023/04/25 06:37:29;;;;;;;3.90;2.20;;;;;;;17.33;96.73;99028.84;5032365;28;20045;-68
2023/04/25 06:39:54;;;;;;;3.33;2.55;;;;;;;17.62;97.10;99034.50;5034804;28;20033;-67
2023/04/25 06:42:20;;;;;;;5.18;2.85;;;;;;;17.77;93.38;99035.78;5033501;28;20371;-66
2023/04/25 06:44:45;;;;;;;3.28;2.53;;;;;;;17.93;91.16;99030.84;5034898;28;20029;-66
2023/04/25 06:47:11;;;;;;;3.25;2.55;;;;;;;18.23;91.38;99023.63;5032519;28;20317;-68
2023/04/25 06:49:36;;;;;;;4.15;2.42;;;;;;;18.32;95.19;99014.22;5034105;28;20354;-66
2023/04/25 06:52:02;;;;;;;3.28;2.40;;;;;;;18.11;92.40;99015.56;5032968;28;20082;-66
2023/04/25 06:54:29;;;;;;;3.92;2.45;;;;;;;18.26;90.01;99015.13;5034937;28;20044;-68
2023/04/25 06:56:55;;;;;;;2.58;2.17;;;;;;;18.51;87.63;99009.56;5033871;28;20715;-68
2023/04/25 06:59:21;;;;;;;2.60;2.13;;;;;;;19.02;84.80;99013.50;5032968;28;20033;-68
2023/04/25 07:01:46;;;;;;;2.67;1.95;;;;;;;19.52;83.19;99007.59;5034334;28;20361;-66
2023/04/25 07:04:12;;;;;;;3.17;2.55;;;;;;;19.90;84.65;99032.03;5033697;28;20099;-66
2023/04/25 07:06:44;;;;;;;2.80;2.40;;;;;;;20.15;81.34;99025.50;5034083;28;20053;-68
2023/04/25 07:09:10;;;;;;;3.33;2.40;;;;;;;20.60;82.71;99030.88;5033962;28;20040;-66
2023/04/25 07:11:36;;;;;;;3.80;2.83;;;;;;;20.86;79.22;99034.81;5033415;28;20042;-67
2023/04/25 07:14:01;;;;;;;3.47;3.05;;;;;;;20.34;78.01;99026.91;5030540;28;20372;-67
2023/04/25 07:16:27;;;;;;;3.53;2.75;;;;;;;20.42;79.15;99031.13;5033155;28;20048;-66
2023/04/25 07:18:52;;;;;;;3.67;2.67;;;;;;;20.75;80.42;99027.63;5030708;28;21288;-68
2023/04/25 07:21:18;;;;;;;3.13;2.78;;;;;;;20.75;78.77;99020.34;5032684;28;20030;-66
2023/04/25 07:23:43;;;;;;;4.97;3.33;;;;;;;20.33;79.10;99019.91;5037998;28;20059;-68
2023/04/25 07:26:09;;;;;;;2.78;2.50;;;;;;;20.05;81.32;99018.06;5038447;28;20033;-68
2023/04/25 07:28:34;;;;;;;3.75;2.25;;;;;;;19.93;80.73;99009.25;5038154;28;20066;-66
2023/04/25 07:31:00;;;;;;;3.83;2.50;;;;;;;19.82;81.48;99019.00;5038282;28;20044;-68
2023/04/25 07:33:25;;;;;;;2.92;2.63;;;;;;;20.08;82.70;99010.34;5037702;28;20251;-67
2023/04/25 07:35:51;;;;;;;2.58;2.38;;;;;;;20.26;78.87;99017.38;5037594;28;20054;-68
2023/04/25 07:38:17;;;;;;;2.58;2.20;;;;;;;20.86;79.39;99003.34;5038202;28;20029;-69
2023/04/25 07:40:42;;;;;;;2.47;2.28;;;;;;;20.52;75.30;99007.91;5038440;28;20038;-69
2023/04/25 07:43:08;;;;;;;3.50;3.10;;;;;;;20.39;77.87;99005.53;5038444;28;20025;-69
2023/04/25 07:45:33;;;;;;;3.28;2.97;;;;;;;20.71;77.47;98998.50;5038390;28;20037;-69
2023/04/25 07:47:59;;;;;;;2.90;2.60;;;;;;;20.71;79.06;98995.00;5038676;28;20037;-69
2023/04/25 07:50:24;;;;;;;4.65;3.03;;;;;;;20.80;76.36;98996.22;5037630;28;20063;-69
2023/04/25 07:52:50;;;;;;;4.57;2.97;;;;;;;20.51;79.54;98981.25;5038209;28;20104;-69
2023/04/25 07:55:16;;;;;;;4.75;2.80;;;;;;;20.66;77.04;98992.25;5038445;28;20044;-69
2023/04/25 07:57:41;;;;;;;5.45;3.17;;;;;;;20.48;77.54;98987.13;5038077;28;20065;-69
2023/04/25 08:00:09;;;;;;;3.42;2.70;;;;;;;20.83;74.95;98990.38;5036040;28;20044;-69
2023/04/25 08:02:35;;;;;;;4.35;3.65;;;;;;;20.65;74.46;98987.91;5038440;28;20048;-69
2023/04/25 08:05:00;;;;;;;2.90;2.38;;;;;;;19.65;79.36;98989.34;5038432;28;20037;-69
2023/04/25 08:07:26;;;;;;;3.17;2.88;;;;;;;19.70;80.12;98989.47;5038217;28;20033;-68
2023/04/25 08:09:52;;;;;;;4.25;2.53;;;;;;;19.99;80.11;98989.47;5038127;28;20035;-68
2023/04/25 08:12:17;;;;;;;4.05;2.60;;;;;;;19.75;78.31;98986.88;5037848;28;20060;-68
2023/04/25 08:14:43;;;;;;;3.08;2.78;;;;;;;20.05;77.64;98991.19;5037845;28;20067;-68
2023/04/25 08:17:09;;;;;;;3.28;2.90;;;;;;;20.39;82.62;98990.22;5037656;28;20050;-68
2023/04/25 08:19:35;;;;;;;3.05;2.47;;;;;;;20.66;77.75;98989.56;5038267;28;20041;-68
2023/04/25 08:22:00;;;;;;;3.05;2.75;;;;;;;20.91;75.36;98994.53;5037976;28;20519;-68
2023/04/25 08:24:26;;;;;;;2.95;2.53;;;;;;;21.08;74.06;98995.31;5038055;28;20045;-69
2023/04/25 08:26:51;;;;;;;2.67;2.45;;;;;;;21.28;73.20;98994.78;5037786;28;20041;-69
2023/04/25 08:29:17;;;;;;;4.47;2.85;;;;;;;21.41;75.56;99001.69;5037714;28;20096;-69
2023/04/25 08:31:43;;;;;;;5.05;3.25;;;;;;;21.68;73.26;98999.84;5037941;28;20204;-69
2023/04/25 08:34:09;;;;;;;3.47;2.63;;;;;;;21.90;70.07;98986.38;5037471;28;20029;-69
2023/04/25 08:36:34;;;;;;;3.63;2.30;;;;;;;21.71;72.35;98993.16;5037069;28;20069;-69
2023/04/25 08:39:00;;;;;;;3.00;2.70;;;;;;;21.72;72.89;98995.59;5037192;28;20037;-69
2023/04/25 08:41:27;;;;;;;4.80;2.42;;;;;;;21.62;70.42;98982.81;5037917;28;20235;-69
2023/04/25 08:43:54;;;;;;;3.15;2.22;;;;;;;21.21;71.56;98986.06;5037186;28;20107;-69
2023/04/25 08:46:20;;;;;;;3.95;2.60;;;;;;;21.15;71.77;98985.19;5037083;28;20108;-69
2023/04/25 08:48:46;;;;;;;3.22;2.58;;;;;;;21.34;75.58;98985.72;5037452;28;20227;-69
2023/04/25 08:51:27;;;;;;;4.32;3.63;;;;;;;21.33;73.76;98989.47;5037316;28;20041;-69
2023/04/25 08:53:53;;;;;;;3.92;2.95;;;;;;;21.21;74.75;98992.25;5037646;28;20100;-69
2023/04/25 08:56:23;;;;;;;4.38;3.08;;;;;;;21.28;73.03;98984.03;5037475;28;20041;-69
2023/04/25 08:58:50;;;;;;;3.03;2.25;;;;;;;21.37;73.59;98968.25;5037325;28;20030;-69
2023/04/25 09:01:16;;;;;;;3.20;2.90;;;;;;;21.35;74.50;98981.97;5037514;28;20078;-69
2023/04/25 09:03:42;;;;;;;3.05;2.50;;;;;;;21.20;75.41;98992.50;5037617;28;20033;-69
2023/04/25 09:06:10;;;;;;;2.55;2.33;;;;;;;20.97;74.47;98988.16;5037048;28;20047;-69
2023/04/25 09:08:37;;;;;;;3.42;2.30;;;;;;;20.86;73.98;98999.84;5037858;28;20041;-69
2023/04/25 09:11:02;;;;;;;3.63;2.97;;;;;;;20.64;74.22;98994.38;5037062;28;20067;-69
2023/04/25 09:13:29;;;;;;;4.22;2.42;;;;;;;20.48;75.67;98990.63;5036840;28;20408;-69
2023/04/25 09:15:57;;;;;;;5.53;2.00;;;;;;;20.43;76.40;98995.09;5035362;28;20108;-69
2023/04/25 09:18:33;;;;;;;3.08;2.15;;;;;;;20.28;77.17;98991.06;5036691;28;20049;-69
2023/04/25 09:21:10;;;;;;;2.53;2.15;;;;;;;20.26;77.81;98992.38;5036985;28;20035;-69
2023/04/25 09:23:41;;;;;;;4.57;2.40;;;;;;;20.09;78.07;98978.91;5037187;28;20045;-69
2023/04/25 09:26:08;;;;;;;3.60;3.30;;;;;;;20.09;80.54;98978.91;5036823;28;20051;-69
2023/04/25 09:28:34;;;;;;;2.72;2.53;;;;;;;20.09;79.92;98979.72;5035333;28;20335;-69
2023/04/25 09:31:01;;;;;;;4.88;3.08;;;;;;;20.15;81.68;98980.63;5036988;28;20118;-69
2023/04/25 09:33:30;;;;;;;3.90;2.67;;;;;;;20.20;81.28;98978.03;5037300;28;20247;-68
2023/04/25 09:36:05;;;;;;;2.95;2.30;;;;;;;20.17;80.19;98953.50;5036617;28;20266;-68
2023/04/25 09:38:32;;;;;;;3.05;2.50;;;;;;;20.20;79.64;98947.66;5035760;28;20052;-68
2023/04/25 09:40:58;;;;;;;2.95;2.45;;;;;;;20.14;79.44;98965.56;5036698;28;20044;-69
2023/04/25 09:43:24;;;;;;;3.13;2.65;;;;;;;20.07;79.49;98959.53;5036973;28;20255;-69
2023/04/25 09:45:52;;;;;;;3.28;2.70;;;;;;;20.13;79.38;98960.44;5037025;28;20315;-68
2023/04/25 09:48:22;;;;;;;4.30;2.88;;;;;;;20.22;80.50;98967.03;5036682;28;20037;-69
2023/04/25 09:51:07;;;;;;;4.22;3.30;;;;;;;20.34;80.91;98952.44;5036593;28;20034;-69
2023/04/25 09:53:40;;;;;;;4.15;3.75;;;;;;;20.37;77.07;98951.16;5036145;28;20367;-69
2023/04/25 09:56:10;;;;;;;4.30;3.90;;;;;;;20.48;78.65;98950.28;5038115;28;20278;-69
2023/04/25 09:58:37;;;;;;;4.38;3.70;;;;;;;20.51;75.69;98943.59;5040856;28;20091;-69
2023/04/25 10:01:05;;;;;;;5.25;3.65;;;;;;;20.53;75.07;98936.91;5040794;28;20061;-69
2023/04/25 10:03:33;;;;;;;6.32;3.88;;;;;;;20.52;74.80;98932.59;5040606;28;20029;-69
2023/04/25 10:06:08;;;;;;;5.20;3.50;;;;;;;20.72;75.55;98932.06;5040312;28;20041;-69
2023/04/25 10:08:36;;;;;;;3.90;3.50;;;;;;;20.72;74.60;98930.19;5040819;28;20029;-69
2023/04/25 10:11:07;;;;;;;4.38;3.17;;;;;;;20.72;73.10;98924.00;5040569;28;20107;-69
2023/04/25 10:13:34;;;;;;;4.75;3.08;;;;;;;20.84;72.61;98927.44;5040325;28;20033;-69
2023/04/25 10:16:02;;;;;;;4.88;3.30;;;;;;;20.91;71.48;98914.63;5039820;28;20542;-69
2023/04/25 10:18:29;;;;;;;6.57;2.92;;;;;;;20.93;68.59;98909.78;5040132;28;20327;-69
2023/04/25 10:20:56;;;;;;;3.75;3.05;;;;;;;20.96;68.80;98901.22;5040397;28;20037;-69
2023/04/25 10:23:23;;;;;;;3.88;2.63;;;;;;;21.11;69.94;98902.47;5039784;28;20143;-69
2023/04/25 10:25:51;;;;;;;4.70;4.07;;;;;;;21.15;69.66;98901.72;5038583;28;20105;-69
2023/04/25 10:28:17;;;;;;;2.78;2.58;;;;;;;21.22;67.01;98891.59;5040535;28;20065;-69
2023/04/25 10:31:02;;;;;;;4.43;2.88;;;;;;;21.15;64.68;98879.38;5039850;28;20099;-69
2023/04/25 10:33:39;;;;;;;4.30;3.17;;;;;;;20.88;69.58;98873.94;5040083;28;20242;-69
2023/04/25 10:36:14;;;;;;;4.32;3.15;;;;;;;20.96;69.06;98874.31;5039939;28;20255;-69
2023/04/25 10:38:42;;;;;;;2.85;2.30;;;;;;;20.58;64.04;98872.44;5039470;28;20044;-69
2023/04/25 10:41:09;;;;;;;3.65;2.40;;;;;;;20.47;65.15;98857.22;5040095;28;20076;-69
2023/04/25 10:43:46;;;;;;;2.75;2.50;;;;;;;20.26;66.06;98860.66;5036829;28;20256;-69
2023/04/25 10:46:31;;;;;;;3.53;2.55;;;;;;;20.32;67.76;98846.22;5034713;28;20227;-66
2023/04/25 10:48:59;;;;;;;4.28;2.70;;;;;;;20.32;71.38;98856.97;5032935;28;20100;-66
2023/04/25 10:51:26;;;;;;;4.28;2.80;;;;;;;20.18;68.40;98853.81;5031104;28;20306;-68
2023/04/25 10:53:54;;;;;;;2.95;2.35;;;;;;;20.23;67.86;98842.31;5032676;28;20083;-68
2023/04/25 10:56:21;;;;;;;3.97;2.40;;;;;;;20.15;69.42;98846.25;5033871;28;20299;-68
2023/04/25 10:58:47;;;;;;;2.70;2.50;;;;;;;20.09;73.37;98833.78;5029602;28;20373;-69
2023/04/25 11:01:20;;;;;;;2.97;2.30;;;;;;;20.09;71.07;98837.28;5033712;28;20112;-69
2023/04/25 11:03:50;;;;;;;3.42;2.72;;;;;;;20.13;68.51;98840.28;5031492;28;20032;-69
2023/04/25 11:06:46;;;;;;;3.90;3.42;;;;;;;20.16;70.84;98829.06;5032047;28;20065;-69
2023/04/25 11:09:15;;;;;;;5.18;3.00;;;;;;;20.20;70.11;98829.38;5029990;28;20332;-69
2023/04/25 11:11:41;;;;;;;3.45;3.00;;;;;;;20.28;71.10;98819.00;5033474;28;20045;-68
2023/04/25 11:14:07;;;;;;;4.05;2.65;;;;;;;20.32;68.11;98819.34;5028468;28;20029;-66
2023/04/25 11:16:32;;;;;;;4.60;3.95;;;;;;;20.24;76.53;98819.75;5032194;28;20276;-66
2023/04/25 11:18:58;;;;;;;5.78;4.03;;;;;;;20.37;72.58;98814.84;5031982;28;20036;-66
2023/04/25 11:21:28;;;;;;;5.18;4.00;;;;;;;20.46;79.15;98811.75;5030378;28;20034;-68
2023/04/25 11:23:56;;;;;;;4.38;3.83;;;;;;;20.54;78.35;98814.00;5030784;28;20061;-68
2023/04/25 11:26:22;;;;;;;5.28;4.20;;;;;;;20.66;73.73;98801.25;5031142;28;20223;-68